Time;durP1;ratioP1;P1;durP2;ratioP2;P2;SDS_P1;SDS_P2;PMS_P1;PMS_P2;Temp;Humidity;BMP_temperature;BMP_pressure;BME280_temperature;BME280_humidity;BME280_pressure;Samples;Min_cycle;Max_cycle;Signal;HPM_P1;HPM_P2
2023/07/17 00:02:05;;;;;;;;;2.50;2.50;;;;;29.80;29.46;100888.56;5098924;27;45990;-69
2023/07/17 00:04:30;;;;;;;;;3.00;3.00;;;;;29.95;29.23;100907.63;5098357;27;55012;-66
2023/07/17 00:06:56;;;;;;;;;3.00;3.00;;;;;29.98;29.33;100912.66;5099960;27;45247;-65
2023/07/17 00:09:21;;;;;;;;;4.00;4.00;;;;;29.92;29.71;100914.22;5098893;27;45523;-71
2023/07/17 00:11:47;;;;;;;;;2.00;2.00;;;;;29.84;29.35;100889.91;5098293;27;46183;-66
2023/07/17 00:14:13;;;;;;;;;1.75;1.75;;;;;29.94;29.62;100908.63;5099125;27;45231;-69
2023/07/17 00:16:38;;;;;;;;;3.25;3.25;;;;;29.75;29.47;100899.97;5098476;27;45444;-73
2023/07/17 00:19:04;;;;;;;;;3.00;3.00;;;;;29.76;29.59;100909.78;5098549;27;45552;-64
2023/07/17 00:21:29;;;;;;;;;2.00;2.00;;;;;29.76;29.43;100906.22;5098053;27;46256;-70
2023/07/17 00:23:55;;;;;;;;;2.50;2.50;;;;;29.83;29.69;100907.19;5098385;27;50879;-65
2023/07/17 00:26:21;;;;;;;;;2.25;2.25;;;;;29.79;29.79;100903.16;5098070;27;45497;-68
2023/07/17 00:28:46;;;;;;;;;3.00;3.00;;;;;29.86;29.96;100904.97;5097960;27;45618;-63
2023/07/17 00:31:11;;;;;;;;;5.00;5.00;;;;;29.79;29.88;100903.16;5113209;27;56366;-64
2023/07/17 00:33:36;;;;;;;;;3.75;3.75;;;;;29.73;29.35;100902.03;5097795;27;47541;-64
2023/07/17 00:36:02;;;;;;;;;4.75;4.75;;;;;29.72;29.46;100903.88;5097746;27;61523;-66
2023/07/17 00:38:27;;;;;;;;;3.00;3.00;;;;;29.67;29.50;100897.28;5098762;27;45343;-66
2023/07/17 00:40:52;;;;;;;;;2.00;2.00;;;;;29.81;29.68;100910.09;5097979;27;46786;-64
2023/07/17 00:43:18;;;;;;;;;3.25;2.75;;;;;29.66;29.81;100903.75;5098061;27;45312;-63
2023/07/17 00:45:44;;;;;;;;;3.00;3.00;;;;;29.71;29.77;100914.91;5098684;27;45500;-64
2023/07/17 00:48:10;;;;;;;;;3.75;3.75;;;;;29.64;29.79;100912.06;5098903;27;45364;-64
2023/07/17 00:50:37;;;;;;;;;2.75;2.75;;;;;29.64;29.91;100916.63;5097685;27;45588;-72
2023/07/17 00:53:03;;;;;;;;;3.00;3.00;;;;;29.54;29.73;100912.28;5099044;27;45357;-67
2023/07/17 00:55:31;;;;;;;;;3.00;3.00;;;;;29.62;29.83;100911.41;5098015;27;45217;-63
2023/07/17 00:57:57;;;;;;;;;4.00;4.00;;;;;29.63;30.12;100917.66;5098613;27;45707;-67
2023/07/17 01:00:23;;;;;;;;;2.50;2.50;;;;;29.68;29.75;100907.97;5098854;27;46147;-63
2023/07/17 01:02:51;;;;;;;;;4.00;4.00;;;;;29.72;30.07;100914.72;5098738;27;45248;-66
2023/07/17 01:05:16;;;;;;;;;3.00;3.00;;;;;29.76;29.82;100912.50;5097669;27;45231;-69
2023/07/17 01:07:41;;;;;;;;;2.25;2.25;;;;;29.50;30.43;100919.09;5099387;27;45257;-65
2023/07/17 01:10:08;;;;;;;;;3.75;3.75;;;;;29.48;30.47;100921.13;5098381;27;45905;-65
2023/07/17 01:12:34;;;;;;;;;3.50;3.50;;;;;29.46;30.76;100923.19;5097724;27;45628;-66
2023/07/17 01:15:00;;;;;;;;;4.00;4.00;;;;;29.55;30.83;100930.22;5098342;27;45389;-70
2023/07/17 01:17:26;;;;;;;;;3.00;3.00;;;;;29.57;30.61;100928.19;5098339;27;45324;-69
2023/07/17 01:19:51;;;;;;;;;4.00;4.00;;;;;29.49;30.31;100925.53;5097122;27;46307;-66
2023/07/17 01:22:31;;;;;;;;;4.00;4.00;;;;;29.58;30.42;100937.19;5095909;27;45494;-68
2023/07/17 01:24:56;;;;;;;;;2.00;2.00;;;;;29.49;29.99;100920.09;5097639;27;45184;-67
2023/07/17 01:27:22;;;;;;;;;3.00;3.00;;;;;29.54;30.75;100925.84;5097074;27;45381;-71
2023/07/17 01:29:47;;;;;;;;;4.00;4.00;;;;;29.68;30.22;100940.50;5097368;27;46046;-70
2023/07/17 01:32:13;;;;;;;;;2.50;2.50;;;;;29.79;30.01;100930.25;5114140;27;45244;-70
2023/07/17 01:34:38;;;;;;;;;4.50;4.50;;;;;29.41;29.93;100923.72;5098956;27;45370;-70
2023/07/17 01:37:05;;;;;;;;;3.00;3.00;;;;;29.44;29.97;100927.94;5099091;27;45373;-67
2023/07/17 01:39:30;;;;;;;;;3.00;3.00;;;;;29.37;30.77;100916.09;5099464;27;47199;-69
2023/07/17 01:41:55;;;;;;;;;3.00;3.00;;;;;29.41;30.46;100925.59;5098396;27;45297;-63
2023/07/17 01:44:21;;;;;;;;;3.25;3.25;;;;;29.43;30.43;100931.66;5097360;27;45405;-66
2023/07/17 01:46:46;;;;;;;;;3.00;3.00;;;;;29.43;30.57;100937.09;5097282;27;45332;-67
2023/07/17 01:49:12;;;;;;;;;3.00;3.00;;;;;29.30;30.34;100918.69;5097306;27;46032;-66
2023/07/17 01:51:37;;;;;;;;;2.75;2.75;;;;;29.36;30.38;100931.50;5095513;27;45412;-67
2023/07/17 01:54:03;;;;;;;;;3.00;3.00;;;;;29.42;30.13;100930.84;5097134;27;45435;-65
2023/07/17 01:56:29;;;;;;;;;2.00;2.00;;;;;29.41;31.00;100926.44;5114196;27;45516;-67
2023/07/17 01:58:54;;;;;;;;;3.00;3.00;;;;;29.51;30.65;100931.63;5096591;27;45284;-68
2023/07/17 02:01:20;;;;;;;;;3.00;3.00;;;;;29.55;30.41;100934.81;5096505;27;45226;-71
2023/07/17 02:03:46;;;;;;;;;4.00;4.00;;;;;29.54;30.39;100935.84;5095287;27;45327;-71
2023/07/17 02:06:11;;;;;;;;;3.50;3.50;;;;;29.49;30.30;100925.53;5096932;27;45591;-68
2023/07/17 02:08:36;;;;;;;;;2.50;2.50;;;;;29.74;29.82;100930.81;5096224;27;46098;-66
2023/07/17 02:11:03;;;;;;;;;3.00;3.00;;;;;29.51;30.08;100934.31;5096606;27;45247;-71
2023/07/17 02:13:28;;;;;;;;;3.00;3.00;;;;;29.46;29.86;100936.72;5097316;27;45309;-68
2023/07/17 02:15:54;;;;;;;;;3.75;3.75;;;;;29.39;30.34;100941.16;5096994;27;45259;-69
2023/07/17 02:18:19;;;;;;;;;4.25;4.25;;;;;29.26;29.98;100928.19;5098099;27;45450;-69
2023/07/17 02:20:48;;;;;;;;;3.00;3.00;;;;;29.64;30.39;100930.19;5099913;27;46430;-68
2023/07/17 02:23:13;;;;;;;;;4.00;4.00;;;;;29.64;29.75;100925.63;5099281;27;45340;-67
2023/07/17 02:25:39;;;;;;;;;4.00;3.00;;;;;29.77;29.31;100932.31;5098596;27;45380;-64
2023/07/17 02:28:04;;;;;;;;;3.25;3.25;;;;;29.76;29.85;100936.91;5096769;27;46027;-66
2023/07/17 02:30:29;;;;;;;;;2.25;2.25;;;;;29.44;30.25;100938.78;5097047;27;45316;-65
2023/07/17 02:32:55;;;;;;;;;2.50;2.50;;;;;29.44;30.50;100944.19;5096490;27;45292;-64
2023/07/17 02:35:20;;;;;;;;;3.25;3.25;;;;;29.44;30.21;100938.78;5096413;27;45226;-65
2023/07/17 02:37:46;;;;;;;;;3.00;3.00;;;;;29.42;30.27;100943.53;5096211;27;45297;-68
2023/07/17 02:40:12;;;;;;;;;3.00;3.00;;;;;29.55;30.14;100932.94;5096143;27;45535;-69
2023/07/17 02:42:38;;;;;;;;;3.00;3.00;;;;;29.81;29.86;100936.34;5096919;27;45323;-66
2023/07/17 02:45:06;;;;;;;;;3.00;3.00;;;;;29.82;30.36;100943.47;5097466;27;45325;-70
2023/07/17 02:47:32;;;;;;;;;3.00;3.00;;;;;29.85;30.26;100943.94;5112799;27;45358;-69
2023/07/17 02:49:57;;;;;;;;;3.00;3.00;;;;;29.80;30.73;100946.38;5096337;27;45396;-67
2023/07/17 02:52:22;;;;;;;;;4.00;4.00;;;;;29.71;30.33;100944.72;5096353;27;45430;-69
2023/07/17 02:54:47;;;;;;;;;2.00;2.00;;;;;29.68;30.33;100945.06;5097481;27;45576;-70
2023/07/17 02:57:14;;;;;;;;;3.00;3.00;;;;;29.58;30.02;100951.56;5097828;27;48034;-65
2023/07/17 02:59:40;;;;;;;;;4.00;4.00;;;;;29.52;30.99;100952.28;5099673;27;45246;-67
2023/07/17 03:02:05;;;;;;;;;3.00;3.00;;;;;29.56;30.37;100956.31;5099829;27;45377;-66
2023/07/17 03:04:31;;;;;;;;;2.00;2.00;;;;;29.57;30.92;100958.00;5099970;27;45232;-63
2023/07/17 03:06:56;;;;;;;;;3.00;3.00;;;;;29.57;31.06;100952.56;5100285;27;46002;-68
2023/07/17 03:09:22;;;;;;;;;4.00;4.00;;;;;29.58;30.98;100956.97;5099926;27;45166;-69
2023/07/17 03:11:47;;;;;;;;;3.00;3.00;;;;;29.57;30.94;100960.72;5100181;27;45167;-62
2023/07/17 03:14:13;;;;;;;;;3.25;3.25;;;;;29.63;31.26;100948.31;5101180;27;45501;-65
2023/07/17 03:16:38;;;;;;;;;3.00;3.00;;;;;29.62;30.84;100946.63;5099545;27;46221;-69
2023/07/17 03:19:04;;;;;;;;;4.25;4.25;;;;;29.49;31.17;100944.50;5099852;27;45478;-66
2023/07/17 03:21:29;;;;;;;;;3.00;3.00;;;;;29.51;31.22;100955.19;5100166;27;45446;-66
2023/07/17 03:23:54;;;;;;;;;2.50;2.50;;;;;29.49;31.35;100955.34;5099442;27;45311;-66
2023/07/17 03:26:20;;;;;;;;;3.00;3.00;;;;;29.48;31.19;100964.50;5098966;27;45322;-67
2023/07/17 03:28:46;;;;;;;;;2.00;2.00;;;;;29.36;31.05;100958.59;5100075;27;45407;-65
2023/07/17 03:31:11;;;;;;;;;2.00;2.00;;;;;29.42;31.66;100962.50;5099834;27;45340;-67
2023/07/17 03:33:36;;;;;;;;;3.00;3.00;;;;;29.38;31.14;100967.41;5098235;27;45489;-67
2023/07/17 03:36:02;;;;;;;;;3.00;3.00;;;;;29.34;31.64;100960.66;5115317;27;48224;-67
2023/07/17 03:38:27;;;;;;;;;2.00;2.00;;;;;29.33;31.76;100969.81;5097309;27;45367;-70
2023/07/17 03:40:53;;;;;;;;;2.75;2.75;;;;;29.34;30.93;100971.50;5098993;27;45356;-66
2023/07/17 03:43:18;;;;;;;;;3.00;3.00;;;;;29.34;31.36;100981.47;5100017;27;45855;-71
2023/07/17 03:45:44;;;;;;;;;2.00;2.00;;;;;29.33;31.00;100974.34;5099476;27;45781;-67
2023/07/17 03:48:10;;;;;;;;;3.00;3.00;;;;;29.36;30.97;100977.56;5099011;27;45237;-65
2023/07/17 03:50:35;;;;;;;;;2.00;2.00;;;;;29.32;31.05;100983.50;5099098;27;45355;-66
2023/07/17 03:53:01;;;;;;;;;2.25;2.25;;;;;29.27;31.06;100984.06;5102045;27;45525;-65
2023/07/17 03:55:26;;;;;;;;;2.00;2.00;;;;;29.32;31.23;100984.38;5100130;27;47898;-65
2023/07/17 03:57:51;;;;;;;;;2.00;2.00;;;;;29.34;31.60;100984.19;5098714;27;45389;-67
2023/07/17 04:00:17;;;;;;;;;2.50;2.00;;;;;29.19;30.90;100981.38;5099039;27;45760;-65
2023/07/17 04:02:43;;;;;;;;;3.00;3.00;;;;;29.21;31.48;100988.28;5099689;27;45326;-68
2023/07/17 04:05:08;;;;;;;;;3.50;3.50;;;;;29.21;31.54;100998.28;5098632;27;46075;-66
2023/07/17 04:07:34;;;;;;;;;2.50;2.50;;;;;29.23;31.48;100994.38;5098898;27;45385;-68
2023/07/17 04:09:59;;;;;;;;;2.50;2.50;;;;;29.18;31.06;100976.97;5099891;27;45353;-63
2023/07/17 04:12:24;;;;;;;;;2.00;2.00;;;;;29.24;30.74;100992.53;5098879;27;46022;-68
2023/07/17 04:14:50;;;;;;;;;1.50;1.50;;;;;29.15;31.04;100989.81;5100050;27;46575;-63
2023/07/17 04:17:15;;;;;;;;;2.00;2.00;;;;;29.19;31.39;100990.34;5098244;27;45465;-66
2023/07/17 04:19:40;;;;;;;;;1.00;1.00;;;;;29.19;30.73;100994.91;5099607;27;45312;-67
2023/07/17 04:22:06;;;;;;;;;3.00;3.00;;;;;29.13;31.49;100999.16;5098852;27;45584;-64
2023/07/17 04:24:31;;;;;;;;;2.00;2.00;;;;;29.05;31.60;100996.47;5098466;27;46285;-63
2023/07/17 04:26:57;;;;;;;;;1.75;1.75;;;;;29.00;31.51;100994.28;5098545;27;45304;-63
2023/07/17 04:29:22;;;;;;;;;1.50;1.50;;;;;28.96;31.40;100988.38;5098123;27;45310;-64
2023/07/17 04:31:48;;;;;;;;;1.50;1.50;;;;;29.09;31.72;101005.94;5098378;27;45569;-64
2023/07/17 04:34:14;;;;;;;;;0.50;0.50;;;;;29.11;31.16;101006.59;5098006;27;46592;-68
2023/07/17 04:36:40;;;;;;;;;1.00;1.00;;;;;29.15;30.86;101008.78;5099939;27;45302;-66
2023/07/17 04:39:05;;;;;;;;;1.00;1.00;;;;;29.16;30.92;101015.06;5096915;27;45270;-64
2023/07/17 04:41:31;;;;;;;;;2.00;2.00;;;;;29.13;31.34;101004.56;5098374;27;45653;-67
2023/07/17 04:43:56;;;;;;;;;1.00;1.00;;;;;28.86;31.74;100971.47;5098299;27;46854;-65
2023/07/17 04:46:21;;;;;;;;;3.75;3.75;;;;;29.14;31.32;101007.09;5098358;27;45270;-65
2023/07/17 04:48:47;;;;;;;;;1.25;1.25;;;;;29.37;30.67;101008.22;5098475;27;45754;-68
2023/07/17 04:51:12;;;;;;;;;1.00;1.00;;;;;28.99;31.25;101006.97;5098269;27;45310;-64
2023/07/17 04:53:38;;;;;;;;;2.00;2.00;;;;;28.94;31.32;101006.66;5097902;27;45399;-64
2023/07/17 04:56:03;;;;;;;;;1.00;1.00;;;;;28.87;31.25;101013.78;5097055;27;45369;-68
2023/07/17 04:58:32;;;;;;;;;1.50;1.50;;;;;28.82;32.00;101016.16;5098007;27;45628;-67
2023/07/17 05:01:01;;;;;;;;;1.75;1.75;;;;;28.83;31.95;101009.72;5097835;27;45480;-64
2023/07/17 05:03:29;;;;;;;;;2.00;2.00;;;;;28.83;32.15;101024.09;5096985;27;46312;-67
2023/07/17 05:05:55;;;;;;;;;1.75;1.75;;;;;28.89;31.71;101025.28;5097105;27;45336;-65
2023/07/17 05:08:20;;;;;;;;;4.00;3.00;;;;;28.99;31.52;101017.81;5097989;27;45252;-67
2023/07/17 05:11:12;;;;;;;;;1.00;1.00;;;;;29.33;31.09;101017.69;5099894;27;45401;-66
2023/07/17 05:13:37;;;;;;;;;1.75;1.00;;;;;29.40;30.99;101022.28;5095798;27;45286;-64
2023/07/17 05:16:03;;;;;;;;;2.00;2.00;;;;;29.64;31.05;101017.78;5097067;27;45411;-69
2023/07/17 05:18:28;;;;;;;;;1.00;1.00;;;;;29.75;31.06;101021.97;5097362;27;45158;-65
2023/07/17 05:20:54;;;;;;;;;1.50;1.50;;;;;29.94;30.83;101025.25;5097640;27;45241;-65
2023/07/17 05:23:19;;;;;;;;;0.00;0.00;;;;;30.13;30.59;101030.22;5097895;27;45705;-65
2023/07/17 05:25:56;;;;;;;;;2.00;2.00;;;;;30.35;30.63;101033.13;5096924;27;45303;-64
2023/07/17 05:28:22;;;;;;;;;1.00;1.00;;;;;30.24;30.42;101036.25;5095654;27;45428;-66
2023/07/17 05:30:52;;;;;;;;;1.00;1.00;;;;;30.40;30.25;101030.69;5097481;27;45260;-65
2023/07/17 05:33:18;;;;;;;;;3.00;1.25;;;;;30.43;30.41;101033.03;5097646;27;45951;-65
2023/07/17 05:35:43;;;;;;;;;1.50;1.50;;;;;30.36;30.27;101033.97;5096643;27;45294;-65
2023/07/17 05:38:09;;;;;;;;;2.00;2.00;;;;;30.58;30.21;101038.53;5096755;27;45368;-64
2023/07/17 05:40:36;;;;;;;;;5.25;5.25;;;;;30.72;30.08;101044.19;5097121;27;45578;-67
2023/07/17 05:43:03;;;;;;;;;2.00;2.00;;;;;30.68;29.99;101037.44;5095415;27;47921;-67
2023/07/17 05:45:28;;;;;;;;;1.25;1.25;;;;;30.64;29.68;101036.97;5095284;27;45454;-67
2023/07/17 05:47:53;;;;;;;;;3.00;2.75;;;;;30.71;29.84;101043.34;5096254;27;50384;-63
2023/07/17 05:50:19;;;;;;;;;2.00;2.00;;;;;30.78;29.73;101046.19;5091284;27;45533;-66
2023/07/17 05:52:44;;;;;;;;;1.50;1.50;;;;;30.79;29.71;101044.31;5097598;27;46369;-67
2023/07/17 05:55:10;;;;;;;;;2.00;2.00;;;;;30.86;29.71;101046.09;5082415;27;45483;-66
2023/07/17 05:57:35;;;;;;;;;3.00;3.00;;;;;30.89;29.67;101036.75;5087939;27;45458;-66
2023/07/17 06:00:00;;;;;;;;;2.50;2.50;;;;;30.99;29.69;101056.34;5096839;27;45526;-66
2023/07/17 06:02:26;;;;;;;;;0.75;0.75;;;;;31.02;29.35;101053.25;5093303;27;47186;-67
2023/07/17 06:04:51;;;;;;;;;3.00;3.00;;;;;30.97;29.43;101063.81;5094619;27;45427;-68
2023/07/17 06:07:17;;;;;;;;;2.00;2.00;;;;;30.98;29.26;101070.09;5077445;27;45436;-66
2023/07/17 06:09:42;;;;;;;;;2.00;2.00;;;;;30.89;29.43;101067.44;5077200;27;45328;-70
2023/07/17 06:12:07;;;;;;;;;1.00;1.00;;;;;30.73;29.66;101065.72;5092729;27;66562;-70
2023/07/17 06:14:33;;;;;;;;;2.00;2.00;;;;;30.74;29.60;101066.59;5096317;27;45372;-72
2023/07/17 06:16:58;;;;;;;;;5.00;5.00;;;;;30.67;29.81;101076.50;5095154;27;45211;-69
2023/07/17 06:19:23;;;;;;;;;2.00;2.00;;;;;30.67;30.33;101079.22;5095177;27;46055;-66
2023/07/17 06:21:49;;;;;;;;;2.25;2.25;;;;;30.63;29.71;101084.13;5090056;27;46162;-69
2023/07/17 06:24:14;;;;;;;;;5.50;5.50;;;;;30.59;29.72;101085.53;5096542;27;47961;-66
2023/07/17 06:26:41;;;;;;;;;7.00;6.50;;;;;30.65;29.69;101082.09;5107574;27;45460;-70
2023/07/17 06:29:07;;;;;;;;;8.00;8.00;;;;;30.73;29.78;101076.59;5099035;27;45523;-69
2023/07/17 06:31:33;;;;;;;;;7.25;7.25;;;;;30.69;29.70;101077.97;5097996;27;46387;-67
2023/07/17 06:33:58;;;;;;;;;2.50;2.50;;;;;30.78;29.42;101081.47;5098128;27;45553;-70
2023/07/17 06:36:23;;;;;;;;;3.00;3.00;;;;;30.68;29.56;101080.91;5094228;27;46749;-66
2023/07/17 06:38:49;;;;;;;;;4.50;4.50;;;;;30.63;29.65;101078.72;5100491;27;45334;-64
2023/07/17 06:41:14;;;;;;;;;3.00;3.00;;;;;30.80;29.41;101084.84;5100968;27;45492;-67
2023/07/17 06:43:40;;;;;;;;;7.25;7.00;;;;;30.79;29.23;101082.34;5102132;27;45411;-70
2023/07/17 06:46:05;;;;;;;;;3.00;3.00;;;;;30.55;29.62;101082.31;5086172;27;45342;-69
2023/07/17 06:48:31;;;;;;;;;4.00;4.00;;;;;30.57;29.59;101091.13;5100238;27;45552;-69
2023/07/17 06:50:56;;;;;;;;;9.00;9.00;;;;;30.60;29.71;101087.22;5101211;27;45284;-69
2023/07/17 06:53:22;;;;;;;;;11.75;11.75;;;;;30.74;29.54;101093.72;5120174;27;45327;-65
2023/07/17 06:55:55;;;;;;;;;5.50;5.50;;;;;30.94;29.53;101096.78;5109455;27;45278;-71
2023/07/17 06:58:20;;;;;;;;;11.00;9.75;;;;;30.93;29.28;101088.81;5102200;27;45578;-68
2023/07/17 07:00:45;;;;;;;;;10.50;10.50;;;;;30.99;29.17;101105.22;5100835;27;49841;-68
2023/07/17 07:03:11;;;;;;;;;2.75;2.75;;;;;31.01;29.13;101102.31;5099105;27;48777;-67
2023/07/17 07:05:36;;;;;;;;;2.75;2.75;;;;;31.07;29.21;101101.56;5099207;27;45225;-68
2023/07/17 07:08:03;;;;;;;;;3.00;2.00;;;;;31.30;28.86;101096.09;5104556;27;45210;-70
2023/07/17 07:10:28;;;;;;;;;4.75;4.75;;;;;31.55;28.83;101108.59;5121626;27;47611;-67
2023/07/17 07:12:54;;;;;;;;;3.00;3.00;;;;;31.76;28.71;101105.09;5097699;27;45631;-65
2023/07/17 07:15:19;;;;;;;;;4.00;4.00;;;;;31.75;28.58;101100.69;5098056;27;45470;-68
2023/07/17 07:17:45;;;;;;;;;4.50;4.50;;;;;31.77;27.99;101085.03;5098808;27;45410;-70
2023/07/17 07:20:11;;;;;;;;;3.00;3.00;;;;;32.08;27.84;101118.47;5092422;27;46213;-69
2023/07/17 07:22:36;;;;;;;;;4.75;4.75;;;;;32.06;27.70;101111.34;5089011;27;46275;-69
2023/07/17 07:25:02;;;;;;;;;2.75;2.75;;;;;32.09;27.55;101110.13;5096760;27;45270;-71
2023/07/17 07:27:29;;;;;;;;;1.50;1.50;;;;;32.15;27.39;101103.91;5100494;27;45455;-67
2023/07/17 07:29:54;;;;;;;;;3.00;3.00;;;;;32.25;26.94;101105.47;5088293;27;46160;-67
2023/07/17 07:32:19;;;;;;;;;1.50;1.50;;;;;32.18;26.61;101124.44;5078123;27;45324;-64
2023/07/17 07:34:45;;;;;;;;;14.75;14.75;;;;;32.24;26.60;101122.84;5077833;27;45214;-63
2023/07/17 07:37:10;;;;;;;;;2.00;2.00;;;;;32.35;26.64;101116.91;5078939;27;45476;-67
2023/07/17 07:39:35;;;;;;;;;2.25;2.25;;;;;32.64;26.78;101117.81;5077383;27;45294;-68
2023/07/17 07:42:01;;;;;;;;;2.75;2.75;;;;;32.81;26.97;101121.13;5093820;27;45385;-69
2023/07/17 07:44:26;;;;;;;;;2.75;2.75;;;;;32.92;26.19;101122.50;5077979;27;45429;-67
2023/07/17 07:46:51;;;;;;;;;7.00;6.50;;;;;32.95;26.16;101130.28;5078617;27;45291;-70
2023/07/17 07:49:17;;;;;;;;;1.25;1.25;;;;;33.03;25.88;101126.56;5077962;28;51188;-68
2023/07/17 07:51:43;;;;;;;;;3.25;3.25;;;;;33.06;25.66;101131.63;5077383;27;45372;-69
2023/07/17 07:54:09;;;;;;;;;2.00;2.00;;;;;32.90;26.52;101132.75;5077655;27;45360;-69
2023/07/17 07:56:34;;;;;;;;;2.00;2.00;;;;;32.59;25.96;101132.03;5077697;28;45423;-68
2023/07/17 07:58:59;;;;;;;;;3.00;3.00;;;;;32.47;25.82;101134.41;5077497;27;45402;-68
2023/07/17 08:01:24;;;;;;;;;2.00;2.00;;;;;32.35;26.02;101133.25;5077160;27;62971;-68
2023/07/17 08:03:50;;;;;;;;;1.00;1.00;;;;;32.60;25.35;101138.31;5081936;28;46540;-66
2023/07/17 08:06:15;;;;;;;;;1.25;1.25;;;;;32.79;25.87;101140.38;5079969;27;45385;-67
2023/07/17 08:08:41;;;;;;;;;3.50;3.25;;;;;32.90;25.88;101143.66;5078211;28;46138;-69
2023/07/17 08:11:07;;;;;;;;;1.75;1.25;;;;;32.80;25.82;101143.94;5076891;28;60077;-69
2023/07/17 08:13:32;;;;;;;;;2.00;2.00;;;;;33.01;25.30;101140.41;5077845;27;45473;-65
2023/07/17 08:15:57;;;;;;;;;2.00;2.00;;;;;33.25;25.66;101140.13;5077821;27;45533;-64
2023/07/17 08:18:23;;;;;;;;;3.00;3.00;;;;;33.36;25.21;101143.16;5077500;27;45398;-66
2023/07/17 08:20:48;;;;;;;;;4.00;4.00;;;;;33.44;25.10;101142.19;5077429;27;45491;-67
2023/07/17 08:23:24;;;;;;;;;2.75;2.75;;;;;33.65;25.17;101138.53;5078939;27;45843;-65
2023/07/17 08:25:50;;;;;;;;;2.50;1.50;;;;;33.45;24.95;101152.06;5077600;27;45271;-65
2023/07/17 08:28:15;;;;;;;;;1.75;1.75;;;;;33.31;25.13;101159.28;5077200;28;46212;-64
2023/07/17 08:30:41;;;;;;;;;2.00;2.00;;;;;33.28;25.09;101156.09;5077190;28;52001;-69
2023/07/17 08:33:07;;;;;;;;;3.00;3.00;;;;;33.24;25.08;101163.84;5077296;27;45262;-70
2023/07/17 08:35:32;;;;;;;;;3.25;3.25;;;;;33.14;25.10;101161.44;5077245;27;45485;-67
2023/07/17 08:37:58;;;;;;;;;4.75;4.75;;;;;33.29;25.32;101160.50;5076968;27;45454;-67
2023/07/17 08:40:26;;;;;;;;;3.00;3.00;;;;;33.55;24.75;101162.59;5076964;28;52316;-66
2023/07/17 08:42:52;;;;;;;;;2.00;2.00;;;;;33.60;24.64;101151.91;5077492;27;45424;-65
2023/07/17 08:45:22;;;;;;;;;1.25;1.25;;;;;33.85;24.53;101156.88;5077173;27;45402;-65
2023/07/17 08:47:50;;;;;;;;;2.00;2.00;;;;;33.73;24.19;101148.44;5076912;28;45311;-69
2023/07/17 08:50:16;;;;;;;;;3.00;3.00;;;;;33.62;24.34;101152.56;5076877;27;45428;-67
2023/07/17 08:52:42;;;;;;;;;1.50;1.50;;;;;33.63;24.19;101154.25;5093355;27;45405;-66
2023/07/17 08:55:08;;;;;;;;;3.75;3.75;;;;;33.88;24.25;101153.72;5077166;27;45477;-65
2023/07/17 08:57:34;;;;;;;;;2.75;2.75;;;;;34.46;23.39;101154.38;5092230;27;45744;-63
2023/07/17 09:00:00;;;;;;;;;2.75;2.75;;;;;34.80;23.20;101156.13;5109440;27;45447;-66
2023/07/17 09:02:27;;;;;;;;;3.25;3.25;;;;;35.06;23.20;101159.97;5078647;27;45343;-64
2023/07/17 09:04:52;;;;;;;;;0.00;0.00;;;;;35.20;22.96;101157.22;5077607;27;45308;-67
2023/07/17 09:07:17;;;;;;;;;2.00;2.00;;;;;35.47;23.05;101157.97;5076814;28;54208;-70
2023/07/17 09:09:43;;;;;;;;;4.00;4.00;;;;;35.87;22.93;101154.31;5076670;28;56480;-69
2023/07/17 09:12:10;;;;;;;;;2.25;2.25;;;;;36.31;22.61;101151.00;5077237;27;45302;-65
2023/07/17 09:14:37;;;;;;;;;3.00;3.00;;;;;36.75;22.42;101171.16;5076660;27;45287;-65
2023/07/17 09:17:04;;;;;;;;;1.75;1.75;;;;;37.07;21.68;101159.31;5075980;27;46180;-62
2023/07/17 09:19:34;;;;;;;;;5.00;4.75;;;;;37.46;21.19;101168.22;5076206;27;45359;-64
2023/07/17 09:22:04;;;;;;;;;1.25;1.25;;;;;37.77;21.19;101158.19;5076354;27;45516;-64
2023/07/17 09:24:32;;;;;;;;;1.75;1.75;;;;;38.05;20.76;101158.69;5076532;27;45540;-68
2023/07/17 09:26:57;;;;;;;;;2.00;2.00;;;;;38.30;20.41;101166.81;5076336;27;46154;-65
2023/07/17 09:29:23;;;;;;;;;3.50;3.50;;;;;38.46;19.99;101176.34;5076244;27;45287;-70
2023/07/17 09:31:49;;;;;;;;;1.00;1.00;;;;;38.80;19.86;101165.66;5075914;27;45279;-67
2023/07/17 09:34:15;;;;;;;;;1.50;1.50;;;;;38.83;19.52;101167.09;5078921;27;45547;-64
2023/07/17 09:36:41;;;;;;;;;1.75;1.75;;;;;38.87;19.52;101171.88;5083658;27;45311;-65
2023/07/17 09:39:07;;;;;;;;;1.25;1.25;;;;;38.64;19.10;101172.66;5081904;27;45418;-65
2023/07/17 09:41:33;;;;;;;;;1.50;1.50;;;;;38.39;19.48;101167.31;5080256;27;45938;-64
2023/07/17 09:44:05;;;;;;;;;2.00;2.00;;;;;38.42;19.37;101169.63;5079755;27;45505;-67
2023/07/17 09:46:32;;;;;;;;;1.00;1.00;;;;;38.23;19.57;101172.41;5091351;27;46155;-68
2023/07/17 09:48:58;;;;;;;;;2.00;2.00;;;;;38.21;19.67;101166.31;5076007;27;45464;-68
2023/07/17 09:51:24;;;;;;;;;2.00;2.00;;;;;38.22;19.19;101161.63;5075806;27;45288;-67
2023/07/17 09:53:50;;;;;;;;;2.00;2.00;;;;;38.31;19.54;101137.44;5077426;27;45222;-69
2023/07/17 09:56:19;;;;;;;;;3.00;3.00;;;;;38.94;19.23;101165.44;5074480;27;45460;-66
2023/07/17 09:58:50;;;;;;;;;1.00;1.00;;;;;39.34;19.11;101167.53;5075797;27;45584;-67
2023/07/17 10:01:22;;;;;;;;;1.00;1.00;;;;;39.41;18.51;101162.72;5075783;27;45241;-69
2023/07/17 10:03:49;;;;;;;;;2.00;1.50;;;;;39.51;18.43;101158.53;5073893;27;45428;-69
2023/07/17 10:06:17;;;;;;;;;1.75;1.75;;;;;39.49;18.79;101166.19;5075562;27;46209;-69
2023/07/17 10:09:02;;;;;;;;;2.50;2.50;;;;;39.14;18.80;101154.91;5075182;27;45295;-68
2023/07/17 10:11:28;;;;;;;;;3.00;3.00;;;;;39.16;18.76;101155.53;5075740;27;45307;-67
2023/07/17 10:13:55;;;;;;;;;4.00;4.00;;;;;39.01;18.63;101161.50;5075478;27;45235;-66
2023/07/17 10:16:21;;;;;;;;;2.50;2.50;;;;;38.75;19.00;101160.03;5075110;27;45465;-68
2023/07/17 10:18:54;;;;;;;;;1.00;1.00;;;;;38.41;18.83;101126.72;5075507;27;45378;-69
2023/07/17 10:21:19;;;;;;;;;0.00;0.00;;;;;38.25;19.31;101152.94;5076212;27;45390;-68
2023/07/17 10:23:47;;;;;;;;;3.75;3.75;;;;;38.20;18.99;101167.38;5075713;27;45278;-67
2023/07/17 10:26:14;;;;;;;;;5.00;5.00;;;;;38.42;18.76;101156.72;5075404;28;45445;-69
2023/07/17 10:28:41;;;;;;;;;1.25;1.25;;;;;38.39;18.92;101159.09;5076381;27;45291;-71
2023/07/17 10:31:18;;;;;;;;;1.00;1.00;;;;;38.27;18.66;101146.16;5076639;27;45350;-72
2023/07/17 10:33:50;;;;;;;;;1.00;1.00;;;;;38.04;18.69;101163.38;5075407;27;45377;-66
2023/07/17 10:36:17;;;;;;;;;1.25;1.25;;;;;37.84;19.12;101164.44;5076281;27;45518;-66
2023/07/17 10:38:48;;;;;;;;;1.50;1.50;;;;;37.98;19.32;101164.28;5076955;27;45456;-64
2023/07/17 10:41:14;;;;;;;;;1.50;1.50;;;;;38.26;19.08;101160.97;5090732;27;45318;-67
2023/07/17 10:44:01;;;;;;;;;4.00;4.00;;;;;38.64;18.73;101155.34;5074789;28;45317;-68
2023/07/17 10:46:28;;;;;;;;;0.00;0.00;;;;;38.99;18.52;101151.81;5075152;27;46377;-69
2023/07/17 10:49:15;;;;;;;;;2.00;2.00;;;;;39.23;18.35;101162.81;5074825;27;45303;-66
2023/07/17 10:51:46;;;;;;;;;2.75;2.75;;;;;39.24;18.43;101170.00;5075243;27;45385;-66
2023/07/17 10:54:12;;;;;;;;;6.00;6.00;;;;;39.21;18.56;101154.81;5076337;27;45488;-72
2023/07/17 10:56:37;;;;;;;;;2.75;2.75;;;;;39.73;18.11;101147.69;5077392;28;46451;-69
2023/07/17 10:59:04;;;;;;;;;3.00;3.00;;;;;39.88;17.69;101156.31;5076886;27;45628;-69
2023/07/17 11:01:32;;;;;;;;;2.00;2.00;;;;;39.81;18.23;101160.25;5108767;27;45334;-69
2023/07/17 11:03:57;;;;;;;;;3.50;3.50;;;;;39.68;18.06;101164.94;5075473;27;45540;-72
2023/07/17 11:06:27;;;;;;;;;3.75;3.75;;;;;39.64;17.92;101169.25;5075135;27;45376;-70
2023/07/17 11:08:56;;;;;;;;;7.75;7.75;;;;;39.40;18.25;101173.97;5075314;27;45358;-72
2023/07/17 11:11:22;;;;;;;;;3.00;3.00;;;;;39.17;18.19;101170.13;5075514;27;45382;-71
2023/07/17 11:13:49;;;;;;;;;2.00;2.00;;;;;39.23;18.17;101157.31;5075144;27;45452;-67
2023/07/17 11:16:16;;;;;;;;;1.75;1.75;;;;;39.40;18.23;101158.31;5076726;27;45463;-69
2023/07/17 11:18:55;;;;;;;;;3.00;3.00;;;;;39.33;17.98;101143.81;5078265;27;45220;-71
2023/07/17 11:21:26;;;;;;;;;1.75;1.75;;;;;39.60;18.14;101176.34;5078173;27;45545;-72